Flight Track Log - Related Links

Times and Time Zones

All times are in EDT time to prevent confusion due to time zone crossing. See the EGF4086 flight status page for this flight to view local times or setup timezone preferences in your user account.

Time Position Orientation Groundspeed Altitude Reporting Facility
EDT Latitude Longitude Course Direction KTS MPH feet Rate Location/Type
Thu 04:58:16 PM 43.1342 -77.6700 281° West 158 182 1,600  Level Cleveland Center
Thu 04:58:52 PM 43.1597 -77.6831 340° North 204 235 2,600 1,805 Climbing Cleveland Center
Thu 05:00:00 PM 43.1491 -78.0092 280° West  Level FlightAware
Thu 05:00:09 PM 43.1686 -77.7908 276° West 238 274 5,000  Level Cleveland Center
Thu 05:01:00 PM 43.1591 -78.1244 278° West  Level FlightAware
Thu 05:01:09 PM 43.1750 -77.8872 275° West 251 289 8,400  Level Cleveland Center
Thu 05:02:00 PM 43.1723 -78.2390 281° West  Level FlightAware
Thu 05:02:09 PM 43.1811 -77.9781 275° West 251 289 10,300  Level Cleveland Center
Thu 05:03:00 PM 43.1886 -78.3530 281° West  Level FlightAware
Thu 05:03:09 PM 43.1875 -78.0775 275° West 257 296 11,300  Level Cleveland Center
Thu 05:04:09 PM 43.1939 -78.1856 275° West 276 318 12,600 1,500 Climbing Cleveland Center
Thu 05:05:09 PM 43.2006 -78.3047 274° West 299 344 14,300 1,750 Climbing Cleveland Center
Thu 05:06:09 PM 43.2069 -78.4158 275° West 304 350 16,100 1,600 Climbing Cleveland Center
Thu 05:07:09 PM 43.2089 -78.5294 271° West 304 350 17,500 1,000 Climbing Cleveland Center
Thu 05:08:09 PM 43.2006 -78.6553 265° West 316 364 18,100 650 Climbing Cleveland Center
Thu 05:09:09 PM 43.1944 -78.7892 266° West 334 384 18,800 750 Climbing Cleveland Center
Thu 05:10:09 PM 43.1861 -78.9261 265° West 357 411 19,600 850 Climbing Cleveland Center
Thu 05:11:09 PM 43.1778 -79.0686 265° West 370 426 20,500 900 Climbing Cleveland Center
Thu 05:12:09 PM 43.1711 -79.2083 266° West 375 432 21,400 1,169 Climbing Cleveland Center
Thu 05:13:07 PM 43.1500 -79.3333 257° West 370 426 22,800 1,373 Climbing Toronto Center
Thu 05:14:07 PM 43.1500 -79.4667 270° West 370 426 24,100 1,250 Climbing Toronto Center
Thu 05:15:07 PM 43.1333 -79.6167 261° West 350 403 25,300 1,250 Climbing Toronto Center
Thu 05:16:07 PM 43.1333 -79.7500 270° West 340 391 26,600 1,200 Climbing Toronto Center
Thu 05:17:07 PM 43.1167 -79.8667 259° West 340 391 27,700 700 Climbing Toronto Center
Thu 05:18:07 PM 43.1167 -80.0000 270° West 340 391 28,000 150 Climbing Toronto Center
Thu 05:19:07 PM 43.1000 -80.1333 260° West 350 403 28,000  Level Toronto Center
Thu 05:20:07 PM 43.1000 -80.2667 270° West 370 426 28,000  Level Toronto Center
Thu 05:21:07 PM 43.0833 -80.4167 261° West 370 426 28,000  Level Toronto Center
Thu 05:22:07 PM 43.0667 -80.5500 260° West 380 437 28,000  Level Toronto Center
Thu 05:23:07 PM 43.0667 -80.7000 270° West 370 426 28,000  Level Toronto Center
Thu 05:24:07 PM 43.0333 -80.8500 253° West 380 437 28,000  Level Toronto Center
Thu 05:25:07 PM 43.0333 -80.9833 270° West 370 426 28,000  Level Toronto Center
Thu 05:26:07 PM 43.0167 -81.1167 260° West 380 437 28,000  Level Toronto Center
Thu 05:27:07 PM 43.0167 -81.2667 270° West 380 437 28,000  Level Toronto Center
Thu 05:28:07 PM 43.0167 -81.4167 270° West 380 437 28,000  Level Toronto Center
Thu 05:29:07 PM 43.0167 -81.5500 270° West 380 437 28,000  Level Toronto Center
Thu 05:30:07 PM 43.0167 -81.6833 270° West 380 437 28,000  Level Toronto Center
Thu 05:31:07 PM 43.0167 -81.8500 270° West 360 414 28,000  Level Toronto Center
Thu 05:32:07 PM 43.0000 -81.9833 260° West 360 414 28,000  Level Toronto Center
Thu 05:33:07 PM 43.0000 -82.1167 270° West 370 426 28,000  Level Toronto Center
Thu 05:34:07 PM 43.0000 -82.2500 270° West 370 426 28,000  Level Toronto Center
Thu 05:35:07 PM 43.0000 -82.3833 270° West 370 426 28,000  Level Toronto Center
Thu 05:36:07 PM 43.0000 -82.5500 270° West 370 426 28,000  Level Toronto Center
Thu 05:37:07 PM 42.9833 -82.6667 259° West 370 426 28,000  Level Toronto Center
Thu 05:37:33 PM 43.0008 -82.7294 291° West 367 422 28,000  Level Cleveland Center
Thu 05:38:33 PM 43.0106 -82.8689 275° West 367 422 28,000  Level Cleveland Center
Thu 05:39:33 PM 43.0392 -83.0033 286° West 367 422 28,000  Level Cleveland Center
Thu 05:40:33 PM 43.0403 -83.1456 271° West 373 429 28,000  Level Cleveland Center
Thu 05:41:33 PM 43.0247 -83.2783 261° West 363 418 28,000  Level Cleveland Center
Thu 05:42:33 PM 43.0067 -83.4194 260° West 369 425 28,000  Level Cleveland Center
Thu 05:43:33 PM 42.9889 -83.5522 260° West 369 425 28,000  Level Cleveland Center
Thu 05:44:33 PM 42.9728 -83.6906 261° West 369 425 28,000  Level Cleveland Center
Thu 05:45:33 PM 42.9586 -83.8286 262° West 369 425 28,000  Level Cleveland Center
Thu 05:46:33 PM 42.9442 -83.9642 262° West 369 425 28,000  Level Cleveland Center
Thu 05:47:33 PM 42.9317 -84.1081 263° West 369 425 28,000  Level Cleveland Center
Thu 05:48:33 PM 42.9169 -84.2433 262° West 369 425 28,000  Level Cleveland Center
Thu 05:49:33 PM 42.9036 -84.3986 263° West 369 425 28,000  Level Cleveland Center
Thu 05:50:09 PM 42.8950 -84.4717 261° West 373 429 28,000  Level Chicago Center
Thu 05:51:11 PM 42.8819 -84.6094 263° West 369 425 28,000  Level Chicago Center
Thu 05:52:13 PM 42.8664 -84.7492 261° West 372 428 28,000  Level Chicago Center
Thu 05:53:15 PM 42.8528 -84.8872 262° West 368 423 28,000  Level Chicago Center
Thu 05:54:17 PM 42.8356 -85.0522 262° West 368 423 28,000  Level Chicago Center
Thu 05:55:19 PM 42.8208 -85.1897 262° West 367 422 28,000  Level Chicago Center
Thu 05:56:21 PM 42.8058 -85.3258 262° West 365 420 28,000 -242 Level Chicago Center
Thu 05:57:23 PM 42.7908 -85.4628 262° West 365 420 27,500 -960 Descending Chicago Center
Thu 05:58:26 PM 42.7694 -85.5950 258° West 359 413 26,000 -1,440 Descending Chicago Center
Thu 05:59:28 PM 42.7447 -85.7303 256° West 364 419 24,500 -1,488 Descending Chicago Center
Thu 06:00:31 PM 42.7206 -85.8661 256° West 367 422 22,900 -1,584 Descending Chicago Center
Thu 06:01:33 PM 42.6942 -86.0133 256° West 341 392 21,200 -1,355 Descending Chicago Center
Thu 06:02:35 PM 42.6708 -86.1369 256° West 334 384 20,100 -581 Descending Chicago Center
Thu 06:03:37 PM 42.6475 -86.2656 256° West 344 396 20,000 -484 Descending Chicago Center
Thu 06:04:39 PM 42.6231 -86.3875 255° West 338 389 19,100 -1,452 Descending Chicago Center
Thu 06:05:41 PM 42.6003 -86.5150 256° West 345 397 17,000 -1,872 Descending Chicago Center
Thu 06:06:44 PM 42.5764 -86.6389 255° West 341 392 15,200 -1,920 Descending Chicago Center
Thu 06:07:46 PM 42.5467 -86.7869 255° West 340 391 13,000 -1,887 Descending Chicago Center
Thu 06:08:48 PM 42.5147 -86.8947 248° West 313 360 11,300 -1,452 Descending Chicago Center
Thu 06:09:50 PM 42.4858 -87.0058 251° West 312 359 10,000 -629 Descending Chicago Center
Thu 06:10:52 PM 42.4550 -87.1103 248° West 302 348 10,000 -290 Level Chicago Center
Thu 06:11:54 PM 42.4294 -87.2097 251° West 280 322 9,400 -726 Descending Chicago Center
Thu 06:12:56 PM 42.4047 -87.2950 249° West 250 288 8,500 -1,065 Descending Chicago Center
Thu 06:13:58 PM 42.3767 -87.3964 249° West 258 297 7,200 -1,065 Descending Chicago Center
Thu 06:15:00 PM 42.3528 -87.4831 250° West 247 284 6,300 -581 Descending Chicago Center
Thu 06:16:02 PM 42.3114 -87.5675 236° Southwest 243 280 6,000 -144 Descending Chicago Center
Thu 06:17:05 PM 42.2489 -87.5817 190° South 236 272 6,000 -384 Level Chicago Center
Thu 06:18:07 PM 42.1892 -87.5475 157° South 241 277 5,200 -677 Descending Chicago Center
Thu 06:19:09 PM 42.1336 -87.4875 141° Southeast 255 293 4,600 -695 Descending Chicago Center
Thu 06:19:42 PM 42.1000 -87.4500 140° Southeast 248 285 4,100 -290 Descending Chicago TRACON
Thu 06:21:13 PM 42.0228 -87.4036 156° South 238 274 4,000 -50 Descending Chicago Center
Thu 06:21:42 PM 42.0000 -87.4333 224° Southwest 208 239 4,000  Level Chicago TRACON
Thu 06:22:42 PM 42.0000 -87.5167 270° West 182 209 4,000  Level Chicago TRACON
Thu 06:23:42 PM 42.0000 -87.5833 270° West 179 206 4,000  Level Chicago TRACON
Thu 06:24:42 PM 42.0000 -87.6333 270° West 176 203 4,000 -200 Level Chicago TRACON
Thu 06:25:42 PM 42.0000 -87.7000 270° West 172 198 3,600 -400 Descending Chicago TRACON

Login

Don't have an account? Register now (free) for customized features, flight alerts, and more!